Time;durP1;ratioP1;P1;durP2;ratioP2;P2;SDS_P1;SDS_P2;PMS_P1;PMS_P2;Temp;Humidity;BMP_temperature;BMP_pressure;BME280_temperature;BME280_humidity;BME280_pressure;Samples;Min_cycle;Max_cycle;Signal;HPM_P1;HPM_P2
2023/01/01 00:00:30;;;;;;;9.40;8.43;;;;;;;8.11;100.00;100047.69;1749255;81;21450;-64
2023/01/01 00:02:57;;;;;;;11.60;8.97;;;;;;;8.12;100.00;100048.12;1740118;80;21549;-64
2023/01/01 00:05:24;;;;;;;12.70;9.50;;;;;;;8.16;100.00;100047.98;1743354;80;21466;-64
2023/01/01 00:07:50;;;;;;;9.75;8.75;;;;;;;8.17;100.00;100044.48;1740505;80;21551;-64
2023/01/01 00:10:29;;;;;;;9.80;8.70;;;;;;;8.21;100.00;100053.55;1740852;80;21827;-64
2023/01/01 00:12:57;;;;;;;12.63;10.25;;;;;;;8.25;100.00;100050.82;1747890;81;21023;-64
2023/01/01 00:15:25;;;;;;;11.60;9.85;;;;;;;8.19;100.00;100049.22;1750257;80;21561;-64
2023/01/01 00:17:52;;;;;;;13.78;10.55;;;;;;;8.32;100.00;100040.55;1747655;80;21065;-64
2023/01/01 00:20:19;;;;;;;10.87;9.73;;;;;;;8.35;100.00;100038.33;1740931;81;21688;-64
2023/01/01 00:22:45;;;;;;;12.63;9.78;;;;;;;8.39;100.00;100045.19;1747296;80;21853;-64
2023/01/01 00:25:13;;;;;;;10.68;9.48;;;;;;;8.42;100.00;100034.67;1750687;80;21590;-67
2023/01/01 00:27:43;;;;;;;12.55;10.38;;;;;;;8.46;100.00;100033.68;1748780;80;21586;-64
2023/01/01 00:30:11;;;;;;;12.50;9.93;;;;;;;8.54;100.00;100029.53;1745997;81;21617;-64
2023/01/01 00:32:38;;;;;;;12.10;9.60;;;;;;;8.48;100.00;100029.71;1738652;80;21475;-65
2023/01/01 00:35:06;;;;;;;12.25;9.75;;;;;;;8.55;100.00;100029.49;1752793;81;21836;-63
2023/01/01 00:37:33;;;;;;;10.98;9.25;;;;;;;8.60;100.00;100035.05;1716205;82;21649;-64
2023/01/01 00:40:00;;;;;;;10.65;9.55;;;;;;;8.58;100.00;100031.16;1750374;80;21038;-64
2023/01/01 00:42:27;;;;;;;11.55;9.03;;;;;;;8.67;100.00;100022.18;1741937;81;21550;-63
2023/01/01 00:44:54;;;;;;;10.23;8.87;;;;;;;8.65;100.00;100021.38;1750224;81;21525;-64
2023/01/01 00:47:20;;;;;;;11.43;9.65;;;;;;;8.71;100.00;100023.34;1746622;81;21856;-64
2023/01/01 00:49:47;;;;;;;10.50;8.80;;;;;;;8.64;100.00;100020.95;1746711;80;21439;-63
2023/01/01 00:52:15;;;;;;;12.43;9.75;;;;;;;8.71;100.00;100026.42;1751047;81;28753;-63
2023/01/01 00:54:41;;;;;;;9.35;8.45;;;;;;;8.72;100.00;100020.27;1751078;80;21495;-64
2023/01/01 00:57:08;;;;;;;10.50;8.90;;;;;;;8.79;100.00;100015.72;1742657;81;21443;-64
2023/01/01 00:59:35;;;;;;;11.05;9.73;;;;;;;8.81;100.00;100016.52;1739245;81;21844;-63
2023/01/01 01:02:01;;;;;;;12.10;9.58;;;;;;;8.78;100.00;100010.93;1738662;81;21894;-63
2023/01/01 01:04:28;;;;;;;10.70;9.08;;;;;;;8.79;100.00;99998.21;1754408;80;21573;-64
2023/01/01 01:06:55;;;;;;;10.45;9.45;;;;;;;8.80;100.00;99999.94;1740149;80;21507;-63
2023/01/01 01:09:21;;;;;;;9.70;8.45;;;;;;;8.74;100.00;100002.30;1739775;80;21702;-63
2023/01/01 01:11:49;;;;;;;11.40;9.35;;;;;;;8.79;100.00;100001.30;1750372;80;21522;-60
2023/01/01 01:14:16;;;;;;;13.83;9.83;;;;;;;8.84;100.00;99999.41;1756727;80;21417;-64
2023/01/01 01:16:43;;;;;;;12.65;10.15;;;;;;;8.79;100.00;100007.84;1747613;80;21514;-64
2023/01/01 01:19:14;;;;;;;10.95;9.10;;;;;;;8.82;100.00;100011.70;1746201;81;21530;-63
2023/01/01 01:21:38;;;;;;;11.00;9.03;;;;;;;8.88;100.00;100008.42;1742630;81;21483;-64
2023/01/01 01:24:06;;;;;;;10.90;9.30;;;;;;;8.91;100.00;100010.09;1752479;81;21735;-63
2023/01/01 01:26:35;;;;;;;11.25;9.03;;;;;;;8.90;100.00;100008.39;1745190;81;21427;-65
2023/01/01 01:29:02;;;;;;;10.53;9.35;;;;;;;8.89;100.00;100009.28;1744996;80;21477;-63
2023/01/01 01:31:31;;;;;;;9.73;8.68;;;;;;;8.93;100.00;100013.55;1751935;80;21566;-64
2023/01/01 01:33:58;;;;;;;9.68;8.70;;;;;;;8.98;100.00;100015.56;1749703;81;21050;-65
2023/01/01 01:36:24;;;;;;;9.20;8.30;;;;;;;9.00;100.00;100024.23;1744529;81;21765;-62
2023/01/01 01:38:53;;;;;;;9.48;8.18;;;;;;;8.99;100.00;100017.29;1745319;80;21605;-63
2023/01/01 01:41:22;;;;;;;13.55;10.05;;;;;;;9.03;100.00;100003.63;1744995;80;21558;-62
2023/01/01 01:43:57;;;;;;;13.55;10.40;;;;;;;9.03;100.00;100001.02;1749347;81;21570;-63
2023/01/01 01:46:38;;;;;;;15.90;10.90;;;;;;;9.05;100.00;100005.75;1740595;80;21573;-63
2023/01/01 01:49:19;;;;;;;12.82;10.63;;;;;;;9.11;100.00;100005.55;1714001;81;21791;-63
2023/01/01 01:51:46;;;;;;;15.30;11.30;;;;;;;9.12;100.00;100002.05;1751450;80;21408;-63
2023/01/01 01:54:17;;;;;;;15.75;11.78;;;;;;;9.10;100.00;100002.55;1743741;81;21006;-63
2023/01/01 01:56:54;;;;;;;14.85;11.57;;;;;;;9.08;100.00;100003.90;1741244;80;21486;-63
2023/01/01 01:59:21;;;;;;;12.13;10.38;;;;;;;9.17;100.00;100001.42;1736537;80;21633;-63
2023/01/01 02:01:48;;;;;;;13.23;10.57;;;;;;;9.19;100.00;99998.75;1739948;80;21867;-63
2023/01/01 02:04:15;;;;;;;11.90;10.18;;;;;;;9.21;100.00;100004.38;1715889;81;21609;-63
2023/01/01 02:06:41;;;;;;;9.98;8.98;;;;;;;9.26;100.00;100010.78;1737810;81;21450;-63
2023/01/01 02:09:09;;;;;;;11.03;8.83;;;;;;;9.23;100.00;100007.81;1744805;80;21562;-64
2023/01/01 02:11:38;;;;;;;11.75;8.35;;;;;;;9.32;100.00;100008.84;1686541;81;21463;-63
2023/01/01 02:14:05;;;;;;;8.40;7.60;;;;;;;9.29;100.00;99997.11;1742002;80;21664;-63
2023/01/01 02:16:52;;;;;;;9.60;7.90;;;;;;;9.38;100.00;100003.84;1750563;80;21546;-63
2023/01/01 02:19:39;;;;;;;11.08;8.00;;;;;;;9.39;100.00;99988.95;1700908;80;21558;-64
2023/01/01 02:22:38;;;;;;;7.80;7.08;;;;;;;9.45;100.00;99984.34;1744991;80;21577;-64
2023/01/01 02:25:28;;;;;;;8.25;7.42;;;;;;;9.42;100.00;99980.95;1740025;80;21693;-64
2023/01/01 02:28:19;;;;;;;8.68;7.78;;;;;;;9.46;100.00;99996.57;1741715;80;21764;-67
2023/01/01 02:30:45;;;;;;;8.90;8.00;;;;;;;9.48;100.00;99997.84;1747134;80;21470;-64
2023/01/01 02:33:15;;;;;;;9.68;7.83;;;;;;;9.52;100.00;99987.64;1738513;81;21620;-64
2023/01/01 02:35:50;;;;;;;10.63;7.97;;;;;;;9.55;100.00;99987.55;1746030;80;21498;-64
2023/01/01 02:38:42;;;;;;;8.68;7.78;;;;;;;9.63;100.00;99988.60;1744454;80;21680;-64
2023/01/01 02:41:23;;;;;;;8.70;7.80;;;;;;;9.64;100.00;99998.17;1731700;81;21902;-65
2023/01/01 02:43:51;;;;;;;8.75;7.65;;;;;;;9.64;100.00;99995.09;1745558;80;21469;-65
2023/01/01 02:46:17;;;;;;;;;;;;;;;9.61;100.00;99995.21;1745153;81;21456;-64
2023/01/01 02:48:51;;;;;;;8.48;6.85;;;;;;;9.64;100.00;99990.30;1740228;80;20218;-64
2023/01/01 02:52:01;;;;;;;8.75;7.90;;;;;;;9.62;100.00;99984.25;1735082;80;20940;-65
2023/01/01 02:54:39;;;;;;;8.53;6.90;;;;;;;9.61;100.00;99987.80;1742933;81;21862;-64
2023/01/01 02:57:20;;;;;;;7.83;7.05;;;;;;;9.59;100.00;99982.59;1728521;81;21634;-63
2023/01/01 03:00:26;;;;;;;7.60;6.90;;;;;;;9.67;100.00;99990.21;1737251;81;21487;-63
2023/01/01 03:03:27;;;;;;;7.33;6.62;;;;;;;9.70;100.00;100000.59;1721027;80;21499;-64
2023/01/01 03:06:25;;;;;;;7.30;6.60;;;;;;;9.71;100.00;100001.86;1746208;80;21575;-64
2023/01/01 03:09:15;;;;;;;7.75;6.78;;;;;;;9.73;100.00;99990.00;1740806;80;21850;-64
2023/01/01 03:11:57;;;;;;;7.70;7.00;;;;;;;9.78;100.00;99983.30;1741054;81;21526;-65
2023/01/01 03:14:41;;;;;;;7.40;6.47;;;;;;;9.82;100.00;99994.09;1744425;80;21494;-64
2023/01/01 03:17:31;;;;;;;7.90;6.67;;;;;;;9.84;100.00;99981.77;1750285;81;21522;-64
2023/01/01 03:20:00;;;;;;;8.38;7.42;;;;;;;9.90;100.00;99989.42;1738978;80;21554;-64
2023/01/01 03:22:34;;;;;;;7.12;6.42;;;;;;;9.93;100.00;99993.27;1743060;80;21983;-64
2023/01/01 03:25:23;;;;;;;7.95;6.45;;;;;;;9.97;100.00;99992.24;1731542;80;21684;-64
2023/01/01 03:27:56;;;;;;;;;;;;;;;9.98;100.00;99986.06;1737233;80;21006;-65
2023/01/01 03:30:22;;;;;;;7.80;6.70;;;;;;;9.96;100.00;99980.47;1746338;81;20466;-65
2023/01/01 03:33:02;;;;;;;7.83;6.35;;;;;;;10.01;100.00;99983.80;1742731;80;21419;-65
2023/01/01 03:35:43;;;;;;;7.03;6.28;;;;;;;10.03;100.00;99989.86;1741416;80;21867;-66
2023/01/01 03:38:32;;;;;;;7.62;5.42;;;;;;;10.05;100.00;99992.82;1728818;81;21512;-67
2023/01/01 03:41:06;;;;;;;7.75;6.42;;;;;;;10.09;100.00;99983.91;1735053;81;21512;-66
2023/01/01 03:43:51;;;;;;;8.33;6.72;;;;;;;10.12;100.00;99990.39;1719986;81;21696;-65
2023/01/01 03:46:22;;;;;;;8.50;6.20;;;;;;;10.08;100.00;99983.99;1716234;81;21460;-65
2023/01/01 03:48:55;;;;;;;7.05;6.35;;;;;;;10.12;100.00;99982.97;1719237;81;22028;-65
2023/01/01 03:51:56;;;;;;;8.45;6.90;;;;;;;10.08;100.00;99983.99;1727642;81;21654;-64
2023/01/01 03:54:41;;;;;;;7.67;5.78;;;;;;;10.15;100.00;99982.84;1727319;81;21547;-66
2023/01/01 03:57:55;;;;;;;6.87;6.17;;;;;;;10.13;100.00;99989.92;1731245;81;21548;-65
2023/01/01 04:00:27;;;;;;;6.60;5.78;;;;;;;10.19;100.00;99988.84;1721140;81;20993;-65
2023/01/01 04:03:01;;;;;;;6.17;5.50;;;;;;;10.19;100.00;99988.41;1718643;81;21939;-65
2023/01/01 04:05:29;;;;;;;6.05;5.42;;;;;;;10.22;100.00;99995.32;1723777;81;21058;-65
2023/01/01 04:07:56;;;;;;;6.00;5.40;;;;;;;10.22;100.00;99994.00;1727666;81;26006;-65
2023/01/01 04:10:23;;;;;;;6.90;5.97;;;;;;;10.23;100.00;100004.93;1732438;81;21607;-65
2023/01/01 04:12:53;;;;;;;6.65;6.00;;;;;;;10.12;100.00;100016.66;1735033;81;21602;-65
2023/01/01 04:15:25;;;;;;;7.12;5.87;;;;;;;10.18;100.00;100014.27;1736520;81;22185;-65
2023/01/01 04:17:52;;;;;;;8.13;6.25;;;;;;;10.19;100.00;100013.37;1723907;81;21522;-65
2023/01/01 04:20:20;;;;;;;6.08;5.45;;;;;;;10.19;100.00;100013.81;1728486;81;21520;-65
2023/01/01 04:22:46;;;;;;;8.67;6.43;;;;;;;10.24;100.00;100009.25;1734304;81;21466;-66
2023/01/01 04:25:13;;;;;;;6.00;5.50;;;;;;;10.22;100.00;100007.14;1727436;81;21472;-65
2023/01/01 04:27:40;;;;;;;6.08;5.47;;;;;;;10.27;100.00;100002.59;1718103;81;21859;-65
2023/01/01 04:30:09;;;;;;;8.25;5.35;;;;;;;10.31;100.00;100000.28;1715926;81;21565;-65
2023/01/01 04:32:38;;;;;;;5.70;5.10;;;;;;;10.36;100.00;99989.16;1725155;81;21728;-65
2023/01/01 04:35:06;;;;;;;5.55;5.00;;;;;;;10.35;100.00;99990.05;1732802;81;22151;-65
2023/01/01 04:37:35;;;;;;;;;;;;;;;10.38;100.00;99991.70;1724351;81;21543;-65
2023/01/01 04:40:02;;;;;;;6.58;5.28;;;;;;;10.31;100.00;99992.39;1725764;81;21872;-65
2023/01/01 04:42:29;;;;;;;6.05;5.45;;;;;;;10.32;100.00;99989.72;1734162;81;21467;-65
2023/01/01 04:44:56;;;;;;;8.10;6.15;;;;;;;10.30;100.00;99994.58;1729745;81;21002;-65
2023/01/01 04:47:22;;;;;;;6.92;5.85;;;;;;;10.30;100.00;100000.75;1733582;81;21549;-66
2023/01/01 04:49:49;;;;;;;7.12;6.22;;;;;;;10.38;100.00;99998.27;1733966;81;21451;-66
2023/01/01 04:52:18;;;;;;;7.15;6.45;;;;;;;10.34;100.00;100008.06;1725093;81;21631;-65
2023/01/01 04:54:44;;;;;;;6.00;5.40;;;;;;;10.33;100.00;100007.66;1728508;81;21500;-65
2023/01/01 04:57:11;;;;;;;6.15;5.55;;;;;;;10.36;100.00;100012.81;1725106;81;21088;-65
2023/01/01 04:59:38;;;;;;;6.75;6.08;;;;;;;10.38;100.00;100017.55;1721798;81;21828;-66
2023/01/01 05:02:06;;;;;;;6.58;5.97;;;;;;;10.33;100.00;100013.75;1724491;81;21581;-66
2023/01/01 05:04:32;;;;;;;6.45;5.45;;;;;;;10.34;100.00;100009.38;1734667;81;21638;-60
2023/01/01 05:06:59;;;;;;;5.67;5.17;;;;;;;10.35;100.00;100011.55;1727203;81;21569;-60
2023/01/01 05:09:25;;;;;;;6.17;5.58;;;;;;;10.32;100.00;100006.80;1725388;81;21554;-60
2023/01/01 05:11:54;;;;;;;5.55;4.70;;;;;;;10.31;100.00;100009.48;1734169;81;21552;-65
2023/01/01 05:14:21;;;;;;;5.70;5.12;;;;;;;10.32;100.00;100007.23;1729003;81;21512;-65
2023/01/01 05:16:48;;;;;;;5.15;4.65;;;;;;;10.30;100.00;100010.34;1728014;81;21807;-66
2023/01/01 05:19:15;;;;;;;5.53;5.03;;;;;;;10.25;100.00;100013.15;1724155;81;21544;-65
2023/01/01 05:21:44;;;;;;;7.40;5.45;;;;;;;10.15;100.00;100018.31;1723128;81;21611;-65
2023/01/01 05:24:10;;;;;;;6.37;5.12;;;;;;;10.14;100.00;100014.84;1722645;81;21531;-65
2023/01/01 05:26:40;;;;;;;;;;;;;;;10.08;100.00;100020.78;1728693;81;21102;-65
2023/01/01 05:29:07;;;;;;;8.28;5.15;;;;;;;9.96;100.00;100027.75;1729559;81;21724;-65
2023/01/01 05:31:35;;;;;;;6.37;5.50;;;;;;;9.93;100.00;100030.04;1730870;81;21487;-64
2023/01/01 05:34:03;;;;;;;6.90;5.22;;;;;;;9.92;100.00;100027.00;1730499;81;21823;-64
2023/01/01 05:36:37;;;;;;;5.17;4.67;;;;;;;9.88;100.00;100020.98;1731661;81;21546;-65
2023/01/01 05:39:02;;;;;;;5.70;4.92;;;;;;;9.88;100.00;100028.02;1726748;81;21416;-64
2023/01/01 05:41:30;;;;;;;5.80;5.20;;;;;;;9.87;100.00;100033.73;1719374;81;21543;-64
2023/01/01 05:43:57;;;;;;;5.30;4.77;;;;;;;9.87;100.00;100031.53;1735688;81;21571;-64
2023/01/01 05:46:24;;;;;;;5.95;5.28;;;;;;;9.84;100.00;100024.63;1724842;81;21675;-66
2023/01/01 05:48:52;;;;;;;6.67;5.12;;;;;;;9.83;100.00;100020.73;1723349;81;21003;-64
2023/01/01 05:51:21;;;;;;;6.40;4.90;;;;;;;9.82;100.00;100025.60;1735401;81;21613;-64
2023/01/01 05:53:48;;;;;;;5.22;4.58;;;;;;;9.87;100.00;100031.53;1724455;81;21551;-64
2023/01/01 05:56:15;;;;;;;5.65;4.97;;;;;;;9.81;100.00;100043.56;1721379;81;21590;-64
2023/01/01 05:58:43;;;;;;;5.47;4.42;;;;;;;9.85;100.00;100041.23;1715963;81;21562;-64
2023/01/01 06:01:14;;;;;;;4.65;4.25;;;;;;;9.80;100.00;100042.72;1734733;81;21042;-64
2023/01/01 06:03:42;;;;;;;5.58;4.55;;;;;;;9.83;100.00;100041.75;1726517;81;21062;-64
2023/01/01 06:06:15;;;;;;;5.75;5.17;;;;;;;9.78;100.00;100047.16;1726046;81;21839;-63
2023/01/01 06:08:41;;;;;;;4.47;4.08;;;;;;;9.78;100.00;100045.00;1723379;81;21499;-63
2023/01/01 06:11:10;;;;;;;4.70;4.30;;;;;;;9.80;100.00;100056.31;1735081;81;21549;-64
2023/01/01 06:13:37;;;;;;;5.47;4.95;;;;;;;9.75;100.00;100068.27;1717355;82;21487;-64
2023/01/01 06:16:06;;;;;;;5.00;4.60;;;;;;;9.74;100.00;100062.16;1718209;81;21554;-64
2023/01/01 06:18:35;;;;;;;5.17;4.55;;;;;;;9.81;100.00;100060.64;1738111;81;22070;-65
2023/01/01 06:21:10;;;;;;;5.00;4.50;;;;;;;9.82;100.00;100062.38;1732248;81;21524;-64
2023/01/01 06:23:37;;;;;;;5.10;4.60;;;;;;;9.83;100.00;100066.70;1730518;81;21440;-63
2023/01/01 06:26:14;;;;;;;6.23;5.03;;;;;;;9.81;100.00;100066.74;1720160;81;21474;-63
2023/01/01 06:28:41;;;;;;;5.00;4.50;;;;;;;9.80;100.00;100061.56;1720152;81;21509;-64
2023/01/01 06:31:10;;;;;;;4.72;4.30;;;;;;;9.85;100.00;100055.25;1728444;81;22341;-63
2023/01/01 06:33:37;;;;;;;5.12;4.72;;;;;;;9.87;100.00;100060.42;1719008;81;21431;-65
2023/01/01 06:36:06;;;;;;;5.25;4.75;;;;;;;9.90;100.00;100050.68;1732702;81;21518;-64
2023/01/01 06:38:35;;;;;;;5.58;4.85;;;;;;;9.90;100.00;100048.52;1731084;80;21515;-63
2023/01/01 06:41:03;;;;;;;;;;;;;;;9.95;100.00;100046.61;1745230;81;21534;-65
2023/01/01 06:43:33;;;;;;;7.35;4.65;;;;;;;9.95;100.00;100038.72;1743303;81;21858;-67
2023/01/01 06:46:21;;;;;;;5.92;4.05;;;;;;;9.98;100.00;100046.48;1745963;81;21491;-63
2023/01/01 06:48:49;;;;;;;5.62;4.80;;;;;;;10.02;100.00;100045.92;1745859;80;21444;-63
2023/01/01 06:51:21;;;;;;;4.90;4.40;;;;;;;10.02;100.00;100048.12;1742198;81;21519;-63
2023/01/01 06:55:51;;;;;;;4.90;4.28;;;;;;;9.62;100.00;100048.56;1783596;79;23071;-62
2023/01/01 06:58:18;;;;;;;4.95;4.45;;;;;;;9.80;100.00;100054.53;1756276;80;21415;-62
2023/01/01 07:00:45;;;;;;;5.15;4.37;;;;;;;9.84;100.00;100064.48;1754505;80;21786;-62
2023/01/01 07:03:12;;;;;;;5.33;4.67;;;;;;;9.94;100.00;100058.00;1760203;80;21483;-61
2023/01/01 07:05:40;;;;;;;5.20;4.70;;;;;;;9.93;100.00;100058.94;1760495;80;21104;-63
2023/01/01 07:08:07;;;;;;;4.85;4.37;;;;;;;9.93;100.00;100057.16;1764633;80;21492;-65
2023/01/01 07:10:34;;;;;;;5.80;4.28;;;;;;;9.98;100.00;100057.45;1754833;80;20947;-65
2023/01/01 07:13:02;;;;;;;4.35;3.98;;;;;;;10.00;100.00;100052.56;1762378;79;21867;-62
2023/01/01 07:15:30;;;;;;;5.05;4.17;;;;;;;10.05;100.00;100056.34;1759678;80;21589;-65
2023/01/01 07:17:57;;;;;;;5.83;4.75;;;;;;;10.07;100.00;100061.08;1763860;80;21597;-63
2023/01/01 07:20:24;;;;;;;4.53;4.15;;;;;;;10.10;100.00;100065.78;1756445;80;21490;-64
2023/01/01 07:22:51;;;;;;;4.50;4.03;;;;;;;10.10;100.00;100071.50;1764827;80;21447;-64
2023/01/01 07:25:18;;;;;;;4.92;4.22;;;;;;;10.13;100.00;100072.69;1760147;80;25880;-64
2023/01/01 07:27:44;;;;;;;4.12;3.72;;;;;;;10.14;100.00;100068.70;1762403;80;21521;-63
2023/01/01 07:30:11;;;;;;;5.37;4.75;;;;;;;10.24;100.00;100070.55;1764038;80;21412;-63
2023/01/01 07:32:39;;;;;;;4.80;4.33;;;;;;;10.24;100.00;100068.39;1755993;80;28657;-65
2023/01/01 07:35:07;;;;;;;4.30;3.90;;;;;;;10.29;100.00;100065.16;1759970;80;20926;-65
2023/01/01 07:37:33;;;;;;;;;;;;;;;10.31;100.00;100070.78;1731558;80;21792;-66
2023/01/01 07:40:00;;;;;;;7.07;4.63;;;;;;;10.31;100.00;100068.61;1750727;79;20156;-66
2023/01/01 07:42:29;;;;;;;5.00;4.33;;;;;;;10.35;100.00;100070.22;1767057;80;22095;-63
2023/01/01 07:44:58;;;;;;;4.95;4.40;;;;;;;10.43;100.00;100074.73;1760792;80;22604;-63
2023/01/01 07:47:25;;;;;;;4.17;3.87;;;;;;;10.48;100.00;100071.96;1758960;80;21545;-64
2023/01/01 07:49:52;;;;;;;4.57;4.10;;;;;;;10.48;100.00;100069.33;1762786;80;21808;-63
2023/01/01 07:52:19;;;;;;;4.67;4.28;;;;;;;10.60;100.00;100069.34;1765887;80;21463;-63
2023/01/01 07:54:45;;;;;;;5.72;4.08;;;;;;;10.67;100.00;100068.22;1751217;80;21002;-63
2023/01/01 07:57:12;;;;;;;4.92;4.37;;;;;;;10.71;100.00;100068.50;1747791;80;21491;-63
2023/01/01 07:59:39;;;;;;;5.08;3.87;;;;;;;10.77;100.00;100064.78;1747431;80;21511;-63
2023/01/01 08:02:06;;;;;;;5.10;4.70;;;;;;;10.77;100.00;100053.80;1727756;80;22008;-63
2023/01/01 08:04:32;;;;;;;4.17;3.77;;;;;;;10.78;100.00;100060.78;1746570;81;21594;-63
2023/01/01 08:06:59;;;;;;;4.95;4.47;;;;;;;10.86;100.00;100052.14;1754561;81;21547;-64
2023/01/01 08:09:26;;;;;;;4.67;4.27;;;;;;;10.93;100.00;100053.25;1748951;80;21494;-64
2023/01/01 08:11:57;;;;;;;6.58;3.87;;;;;;;10.99;100.00;100056.95;1746600;80;21520;-63
2023/01/01 08:14:22;;;;;;;6.25;4.47;;;;;;;10.99;100.00;100055.17;1749403;81;22082;-65
2023/01/01 08:16:48;;;;;;;5.20;4.70;;;;;;;11.06;100.00;100043.97;1746555;80;21578;-67
2023/01/01 08:19:15;;;;;;;4.37;3.98;;;;;;;11.11;100.00;100043.31;1738947;81;21522;-65
2023/01/01 08:21:42;;;;;;;4.30;3.90;;;;;;;11.15;100.00;100041.42;1737772;80;20942;-64
2023/01/01 08:24:09;;;;;;;5.43;4.80;;;;;;;11.21;100.00;100038.11;1751118;79;21427;-63
2023/01/01 08:26:38;;;;;;;4.72;4.22;;;;;;;11.30;100.00;100041.70;1722375;81;21756;-63
2023/01/01 08:29:06;;;;;;;4.78;4.37;;;;;;;11.34;100.00;100033.66;1745460;80;21053;-64
2023/01/01 08:31:33;;;;;;;4.62;4.20;;;;;;;11.41;100.00;100036.45;1730216;81;21601;-64
2023/01/01 08:34:02;;;;;;;4.67;4.28;;;;;;;11.44;100.00;100045.55;1745555;80;21597;-63
2023/01/01 08:36:29;;;;;;;5.47;4.33;;;;;;;11.49;100.00;100037.02;1736831;80;21133;-63
2023/01/01 08:38:55;;;;;;;5.40;4.75;;;;;;;11.52;100.00;100039.52;1732275;80;21981;-66
2023/01/01 08:41:23;;;;;;;4.70;3.80;;;;;;;11.61;100.00;100040.45;1740172;81;21570;-65
2023/01/01 08:43:51;;;;;;;4.60;4.17;;;;;;;11.71;100.00;100041.40;1750881;80;20978;-62
2023/01/01 08:46:18;;;;;;;4.25;3.85;;;;;;;11.73;100.00;100039.56;1745817;80;21408;-67
2023/01/01 08:48:44;;;;;;;5.83;4.22;;;;;;;11.73;100.00;100039.56;1748252;80;21718;-64
2023/01/01 08:51:12;;;;;;;5.37;4.70;;;;;;;11.76;100.00;100038.97;1738404;80;21830;-63
2023/01/01 08:53:39;;;;;;;4.50;4.10;;;;;;;11.82;100.00;100033.44;1700004;81;22076;-62
2023/01/01 08:56:09;;;;;;;5.83;3.77;;;;;;;11.84;100.00;100035.55;1758861;80;21506;-63
2023/01/01 08:58:38;;;;;;;4.67;4.22;;;;;;;11.90;100.00;100039.73;1725234;80;21506;-63
2023/01/01 09:01:05;;;;;;;4.40;4.00;;;;;;;11.92;100.00;100035.73;1749359;80;21518;-62
2023/01/01 09:03:32;;;;;;;5.05;4.58;;;;;;;11.96;100.00;100036.87;1753194;80;21751;-63
2023/01/01 09:05:59;;;;;;;4.80;4.33;;;;;;;11.99;100.00;100031.45;1743203;80;21079;-62
2023/01/01 09:08:26;;;;;;;4.93;4.33;;;;;;;11.98;100.00;100035.46;1745388;80;21510;-63
2023/01/01 09:11:00;;;;;;;5.12;4.42;;;;;;;12.03;100.00;100034.81;1750826;80;21573;-60
2023/01/01 09:13:27;;;;;;;4.90;4.40;;;;;;;12.06;100.00;100027.64;1733766;80;21461;-67
2023/01/01 09:15:55;;;;;;;5.00;3.67;;;;;;;12.10;100.00;100014.34;1748096;80;21554;-65
2023/01/01 09:18:21;;;;;;;4.67;4.03;;;;;;;12.19;100.00;100005.56;1722556;80;20938;-64
2023/01/01 09:20:49;;;;;;;6.10;4.60;;;;;;;12.22;100.00;100007.20;1756376;80;21069;-63
2023/01/01 09:23:17;;;;;;;4.87;4.20;;;;;;;12.27;100.00;100010.03;1750473;80;26987;-62
2023/01/01 09:25:44;;;;;;;;;;;;;;;12.35;100.00;99997.81;1759494;80;21411;-63
2023/01/01 09:28:12;;;;;;;6.23;3.97;;;;;;;12.34;100.00;100002.72;1756740;80;21776;-62
2023/01/01 09:30:40;;;;;;;4.62;3.90;;;;;;;12.39;100.00;100007.77;1756124;80;21534;-63
2023/01/01 09:33:07;;;;;;;7.05;4.47;;;;;;;12.37;100.00;100003.03;1745504;80;21479;-62
2023/01/01 09:35:37;;;;;;;4.58;4.17;;;;;;;12.42;100.00;100001.05;1746319;80;21021;-62
2023/01/01 09:38:04;;;;;;;5.15;4.20;;;;;;;12.43;100.00;99998.36;1757074;80;21546;-61
2023/01/01 09:41:02;;;;;;;4.20;3.80;;;;;;;12.48;100.00;99992.01;1756283;80;21687;-63
2023/01/01 09:43:52;;;;;;;5.30;4.15;;;;;;;12.53;100.00;99982.12;1754566;80;22216;-62
2023/01/01 09:46:19;;;;;;;4.37;3.98;;;;;;;12.58;100.00;99990.66;1746122;80;21424;-61
2023/01/01 09:49:00;;;;;;;6.85;5.03;;;;;;;12.62;100.00;99990.46;1697810;82;21514;-62
2023/01/01 09:51:31;;;;;;;19.82;13.35;;;;;;;12.60;100.00;99988.36;1713172;80;21005;-62
2023/01/01 09:54:32;;;;;;;52.60;25.15;;;;;;;12.57;100.00;99979.73;1729736;80;21839;-61
2023/01/01 09:57:02;;;;;;;31.23;17.62;;;;;;;12.68;100.00;99984.48;1756465;79;21981;-62
2023/01/01 09:59:30;;;;;;;16.90;10.10;;;;;;;12.71;100.00;99976.44;1761966;80;21542;-62
2023/01/01 10:02:32;;;;;;;7.72;6.12;;;;;;;12.83;100.00;99975.41;1743009;80;21462;-62
2023/01/01 10:05:38;;;;;;;8.70;6.33;;;;;;;12.91;100.00;99985.61;1757480;80;21491;-62
2023/01/01 10:08:31;;;;;;;7.17;5.40;;;;;;;12.92;100.00;99984.70;1739648;79;21579;-62
2023/01/01 10:11:18;;;;;;;4.78;4.28;;;;;;;13.02;100.00;99975.40;1752120;80;21561;-63
2023/01/01 10:13:46;;;;;;;5.10;4.60;;;;;;;12.97;100.00;99970.80;1742105;80;21541;-61
2023/01/01 10:16:36;;;;;;;10.18;9.05;;;;;;;13.11;100.00;99963.56;1742999;80;21076;-63
2023/01/01 10:19:21;;;;;;;10.63;9.08;;;;;;;13.19;100.00;99963.19;1739002;80;21499;-64
2023/01/01 10:21:49;;;;;;;6.50;5.90;;;;;;;13.30;100.00;99947.70;1749101;80;21879;-62
2023/01/01 10:24:25;;;;;;;;;;;;;;;13.39;100.00;99955.17;1747401;80;21592;-59
2023/01/01 10:26:52;;;;;;;5.50;4.50;;;;;;;13.39;100.00;99958.26;1752197;80;20440;-61
2023/01/01 10:29:25;;;;;;;4.20;3.80;;;;;;;13.44;100.00;99951.81;1756330;80;20968;-61
2023/01/01 10:31:55;;;;;;;3.85;3.55;;;;;;;13.48;100.00;99952.52;1759231;80;21501;-62
2023/01/01 10:34:27;;;;;;;4.87;4.00;;;;;;;13.52;100.00;99956.72;1748990;80;21563;-62
2023/01/01 10:36:57;;;;;;;9.55;6.72;;;;;;;13.60;100.00;99955.89;1753021;80;21604;-62
2023/01/01 10:39:25;;;;;;;11.43;8.68;;;;;;;13.62;100.00;99944.77;1727082;80;21574;-60
2023/01/01 10:41:52;;;;;;;7.17;6.00;;;;;;;13.66;100.00;99950.76;1752128;80;21538;-63
2023/01/01 10:44:32;;;;;;;5.62;5.10;;;;;;;13.67;100.00;99964.34;1733060;80;21491;-62
2023/01/01 10:47:06;;;;;;;4.53;4.10;;;;;;;13.68;100.00;99966.54;1752105;80;21739;-65
2023/01/01 10:49:37;;;;;;;5.05;4.55;;;;;;;13.65;100.00;99970.64;1757035;80;21487;-62
2023/01/01 10:52:04;;;;;;;3.72;3.42;;;;;;;13.68;100.00;99969.19;1709236;80;21526;-62
2023/01/01 10:54:36;;;;;;;3.60;3.00;;;;;;;13.68;100.00;99967.86;1762282;80;21696;-61
2023/01/01 10:57:18;;;;;;;10.45;9.38;;;;;;;13.70;100.00;99967.31;1753265;80;21621;-60
2023/01/01 10:59:45;;;;;;;27.70;15.20;;;;;;;13.74;100.00;99970.19;1737078;80;21628;-59
2023/01/01 11:02:21;;;;;;;42.55;20.27;;;;;;;13.77;100.00;99967.39;1700524;80;21444;-60
2023/01/01 11:04:49;;;;;;;38.92;22.87;;;;;;;13.79;100.00;99969.02;1761618;80;21535;-60
2023/01/01 11:07:30;;;;;;;37.30;21.68;;;;;;;13.82;100.00;99975.92;1748982;80;21739;-62
2023/01/01 11:10:02;;;;;;;35.30;16.77;;;;;;;13.83;100.00;99968.40;1755694;80;21635;-64
2023/01/01 11:12:36;;;;;;;16.55;9.98;;;;;;;13.83;100.00;99969.72;1758792;80;21800;-61
2023/01/01 11:15:05;;;;;;;9.58;6.60;;;;;;;13.83;100.00;99973.21;1756279;80;21569;-63
2023/01/01 11:17:34;;;;;;;13.25;10.03;;;;;;;13.92;100.00;99966.61;1723898;80;22125;-63
2023/01/01 11:20:03;;;;;;;7.83;6.65;;;;;;;13.93;100.00;99961.69;1756957;80;21550;-62
2023/01/01 11:22:49;;;;;;;6.37;5.58;;;;;;;14.00;100.00;99966.20;1751833;80;21468;-62
2023/01/01 11:25:28;;;;;;;3.70;3.40;;;;;;;14.04;100.00;99957.66;1754164;80;21915;-60
2023/01/01 11:28:13;;;;;;;3.83;2.87;;;;;;;14.03;100.00;99973.96;1749406;80;21637;-61
2023/01/01 11:30:40;;;;;;;3.20;3.00;;;;;;;14.03;100.00;99970.00;1754693;80;21452;-61
2023/01/01 11:33:13;;;;;;;4.10;3.22;;;;;;;14.04;100.00;99966.44;1753532;80;21531;-60
2023/01/01 11:35:52;;;;;;;4.40;2.72;;;;;;;14.13;100.00;99972.56;1753479;80;21439;-62
2023/01/01 11:38:19;;;;;;;2.70;2.50;;;;;;;14.22;100.00;99973.85;1744917;80;21785;-61
2023/01/01 11:41:09;;;;;;;3.02;2.83;;;;;;;14.21;100.00;99973.00;1748385;80;21525;-61
2023/01/01 11:43:42;;;;;;;3.45;2.67;;;;;;;14.17;100.00;99969.30;1695458;83;21627;-61